Time;durP1;ratioP1;P1;durP2;ratioP2;P2;SDS_P1;SDS_P2;PMS_P1;PMS_P2;Temp;Humidity;BMP_temperature;BMP_pressure;BME280_temperature;BME280_humidity;BME280_pressure;Samples;Min_cycle;Max_cycle;Signal;HPM_P1;HPM_P2
2023/11/16 00:00:56;;;;;;;2.67;1.45;;;12.30;79.20;;;;;;4920036;29;20043;-76
2023/11/16 00:03:23;;;;;;;1.88;1.55;;;12.30;79.10;;;;;;4904861;29;20044;-76
2023/11/16 00:05:49;;;;;;;2.45;1.55;;;12.40;79.20;;;;;;4888755;29;20056;-76
2023/11/16 00:08:16;;;;;;;2.20;1.50;;;12.30;79.20;;;;;;4937533;29;20059;-77
2023/11/16 00:10:42;;;;;;;3.28;1.35;;;12.30;79.20;;;;;;4937352;29;20043;-76
2023/11/16 00:13:09;;;;;;;1.80;1.30;;;12.30;79.20;;;;;;4904398;29;20054;-75
2023/11/16 00:15:38;;;;;;;2.38;1.33;;;12.40;79.30;;;;;;4904147;29;20393;-76
2023/11/16 00:18:04;;;;;;;1.30;1.20;;;12.30;79.20;;;;;;4888994;29;20082;-76
2023/11/16 00:20:32;;;;;;;1.98;1.27;;;12.30;79.20;;;;;;4888322;29;20040;-77
2023/11/16 00:22:58;;;;;;;4.15;1.40;;;12.30;79.20;;;;;;4936808;29;20062;-76
2023/11/16 00:25:24;;;;;;;2.90;1.17;;;12.30;79.20;;;;;;4919526;29;20127;-76
2023/11/16 00:27:50;;;;;;;1.27;1.15;;;12.30;79.20;;;;;;4937033;29;20454;-76
2023/11/16 00:30:17;;;;;;;1.38;1.27;;;12.30;79.30;;;;;;4920089;29;20050;-77
2023/11/16 00:32:43;;;;;;;2.20;1.52;;;12.30;79.30;;;;;;4903878;29;20028;-77
2023/11/16 00:35:10;;;;;;;2.72;1.52;;;12.30;79.20;;;;;;4919383;29;20043;-76
2023/11/16 00:37:36;;;;;;;2.00;1.27;;;12.30;79.30;;;;;;4904142;29;20090;-75
2023/11/16 00:40:04;;;;;;;1.85;1.30;;;12.30;79.30;;;;;;4920232;29;20035;-76
2023/11/16 00:42:31;;;;;;;1.65;1.25;;;12.30;79.20;;;;;;4919325;29;20086;-76
2023/11/16 00:44:56;;;;;;;2.72;1.35;;;12.30;79.20;;;;;;4919159;29;20126;-76
2023/11/16 00:47:22;;;;;;;1.27;1.20;;;12.30;79.20;;;;;;4903615;29;20035;-76
2023/11/16 00:49:48;;;;;;;2.22;1.30;;;12.30;79.20;;;;;;4903558;29;20063;-76
2023/11/16 00:52:15;;;;;;;1.33;1.20;;;12.20;79.20;;;;;;4903812;29;20036;-76
2023/11/16 00:54:40;;;;;;;1.90;1.33;;;12.30;79.30;;;;;;4936317;29;20042;-76
2023/11/16 00:57:06;;;;;;;1.48;1.38;;;12.30;79.20;;;;;;4919667;29;20040;-76
2023/11/16 00:59:32;;;;;;;1.65;1.20;;;12.30;79.30;;;;;;4903470;29;20493;-76
2023/11/16 01:01:59;;;;;;;2.45;1.40;;;12.30;79.20;;;;;;4919346;29;20035;-76
2023/11/16 01:04:25;;;;;;;1.95;1.40;;;12.30;79.30;;;;;;4903395;29;20036;-76
2023/11/16 01:06:51;;;;;;;1.65;1.25;;;12.30;79.30;;;;;;4936513;29;20048;-76
2023/11/16 01:09:17;;;;;;;1.38;1.30;;;12.30;79.30;;;;;;4919144;29;20032;-76
2023/11/16 01:11:43;;;;;;;1.73;1.27;;;12.20;79.20;;;;;;4887896;29;20027;-76
2023/11/16 01:14:09;;;;;;;1.35;1.15;;;12.30;79.30;;;;;;4919052;29;20479;-76
2023/11/16 01:16:41;;;;;;;1.90;1.30;;;12.20;79.20;;;;;;4904059;29;20032;-76
2023/11/16 01:19:12;;;;;;;2.72;1.50;;;12.30;79.30;;;;;;4936615;29;20098;-77
2023/11/16 01:21:50;;;;;;;2.17;1.30;;;12.20;79.20;;;;;;4904276;29;20036;-76
2023/11/16 01:24:17;;;;;;;1.67;1.35;;;12.30;79.20;;;;;;4905619;29;20035;-77
2023/11/16 01:26:45;;;;;;;2.35;1.50;;;12.30;79.20;;;;;;4903325;29;20119;-76
2023/11/16 01:29:17;;;;;;;2.50;1.60;;;12.30;79.20;;;;;;4903954;29;20536;-76
2023/11/16 01:31:43;;;;;;;1.73;1.20;;;12.30;79.20;;;;;;4904476;29;20126;-76
2023/11/16 01:34:14;;;;;;;1.52;1.23;;;12.20;79.20;;;;;;4903036;29;20535;-76
2023/11/16 01:36:40;;;;;;;2.53;1.17;;;12.20;79.20;;;;;;4904328;29;20032;-76
2023/11/16 01:39:09;;;;;;;1.42;1.23;;;12.20;79.20;;;;;;4936416;29;20445;-76
2023/11/16 01:41:35;;;;;;;1.65;1.30;;;12.30;79.20;;;;;;4903481;29;20469;-77
2023/11/16 01:44:01;;;;;;;2.05;1.20;;;12.30;79.20;;;;;;4902978;29;20046;-76
2023/11/16 01:46:27;;;;;;;1.95;1.45;;;12.30;79.90;;;;;;4918954;29;20400;-76
2023/11/16 01:48:56;;;;;;;1.55;1.13;;;12.20;79.20;;;;;;4918832;29;20060;-77
2023/11/16 01:51:25;;;;;;;2.38;1.40;;;12.30;79.20;;;;;;4903779;29;20035;-76
2023/11/16 01:53:59;;;;;;;1.30;1.15;;;12.30;79.20;;;;;;4918736;29;20465;-77
2023/11/16 01:56:38;;;;;;;1.70;1.30;;;12.20;79.20;;;;;;4938091;29;20059;-76
2023/11/16 01:59:07;;;;;;;1.38;1.27;;;12.20;79.20;;;;;;4922271;29;20480;-76
2023/11/16 02:01:35;;;;;;;2.85;1.23;;;12.20;79.20;;;;;;4922085;29;20415;-76
2023/11/16 02:04:04;;;;;;;1.85;1.40;;;12.20;79.20;;;;;;4922201;29;20487;-76
2023/11/16 02:06:31;;;;;;;1.85;1.40;;;12.20;79.20;;;;;;4890908;29;20492;-76
2023/11/16 02:08:58;;;;;;;1.73;1.30;;;12.20;79.20;;;;;;4891008;29;20051;-76
2023/11/16 02:11:25;;;;;;;1.70;1.60;;;12.20;79.20;;;;;;4922721;29;20115;-76
2023/11/16 02:13:50;;;;;;;1.60;1.30;;;12.20;79.20;;;;;;4906447;29;20046;-76
2023/11/16 02:16:16;;;;;;;2.03;1.23;;;12.20;79.20;;;;;;4906243;29;20032;-76
2023/11/16 02:18:43;;;;;;;2.10;1.45;;;12.20;79.30;;;;;;4922053;29;20040;-76
2023/11/16 02:21:09;;;;;;;2.55;1.55;;;12.20;79.30;;;;;;4921894;29;20043;-76
2023/11/16 02:23:35;;;;;;;1.88;1.20;;;12.20;79.30;;;;;;4906785;29;20487;-76
2023/11/16 02:26:00;;;;;;;3.90;1.45;;;12.20;79.30;;;;;;4905937;29;20032;-76
2023/11/16 02:28:27;;;;;;;2.20;1.40;;;12.20;79.30;;;;;;4922190;29;20039;-76
2023/11/16 02:30:53;;;;;;;1.60;1.48;;;12.20;79.40;;;;;;4921873;29;20036;-76
2023/11/16 02:33:19;;;;;;;1.75;1.23;;;12.20;79.40;;;;;;4906248;29;20119;-77
2023/11/16 02:35:45;;;;;;;1.90;1.30;;;12.20;79.30;;;;;;4921936;29;20133;-76
2023/11/16 02:38:12;;;;;;;1.70;1.33;;;12.20;79.30;;;;;;4906664;29;20075;-76
2023/11/16 02:40:39;;;;;;;1.20;1.10;;;12.20;79.30;;;;;;4905754;29;20039;-76
2023/11/16 02:43:05;;;;;;;1.60;1.30;;;12.20;79.30;;;;;;4905795;29;20035;-76
2023/11/16 02:45:32;;;;;;;2.92;1.30;;;12.20;79.30;;;;;;4905528;29;20095;-76
2023/11/16 02:47:59;;;;;;;1.85;1.27;;;12.20;79.40;;;;;;4905853;29;20036;-77
2023/11/16 02:50:26;;;;;;;2.38;1.50;;;12.20;79.40;;;;;;4921382;29;20042;-76
2023/11/16 02:52:52;;;;;;;2.40;1.48;;;12.20;80.10;;;;;;4938551;29;20046;-77
2023/11/16 02:55:24;;;;;;;1.63;1.40;;;12.10;79.40;;;;;;4905476;29;20039;-76
2023/11/16 02:57:57;;;;;;;1.65;1.30;;;12.20;79.40;;;;;;4921672;29;20380;-77
2023/11/16 03:00:24;;;;;;;1.40;1.30;;;12.10;79.30;;;;;;4938403;29;20040;-76
2023/11/16 03:02:50;;;;;;;2.10;1.30;;;12.10;79.90;;;;;;4905539;29;20032;-76
2023/11/16 03:05:21;;;;;;;2.58;1.52;;;12.10;79.30;;;;;;4920635;29;20106;-76
2023/11/16 03:07:50;;;;;;;1.70;1.38;;;12.20;79.40;;;;;;4905844;29;20035;-76
2023/11/16 03:10:16;;;;;;;2.22;1.40;;;12.10;79.30;;;;;;4905312;29;20043;-76
2023/11/16 03:12:44;;;;;;;2.55;1.50;;;12.10;79.30;;;;;;4921012;29;20031;-76
2023/11/16 03:15:10;;;;;;;2.75;1.30;;;12.10;79.30;;;;;;4920777;29;20469;-76
2023/11/16 03:17:40;;;;;;;2.05;1.67;;;12.10;79.20;;;;;;4921125;29;20043;-76
2023/11/16 03:20:13;;;;;;;1.58;1.30;;;12.10;79.30;;;;;;4920793;29;20106;-76
2023/11/16 03:22:39;;;;;;;2.33;1.50;;;12.10;79.30;;;;;;4938030;29;20070;-76
2023/11/16 03:25:09;;;;;;;1.85;1.38;;;12.20;79.40;;;;;;4904876;29;20091;-76
2023/11/16 03:27:35;;;;;;;1.75;1.40;;;12.10;79.40;;;;;;4905286;29;20032;-76
2023/11/16 03:30:02;;;;;;;2.30;1.45;;;12.10;79.40;;;;;;4920528;29;20032;-78
2023/11/16 03:32:29;;;;;;;1.30;1.20;;;12.10;79.40;;;;;;4889545;29;20147;-76
2023/11/16 03:34:54;;;;;;;1.38;1.27;;;12.10;79.40;;;;;;4904981;29;20381;-77
2023/11/16 03:37:20;;;;;;;2.95;1.48;;;12.10;79.40;;;;;;4920540;29;20028;-76
2023/11/16 03:39:47;;;;;;;2.72;1.50;;;12.10;79.40;;;;;;4920896;29;20040;-76
2023/11/16 03:42:12;;;;;;;1.42;1.33;;;12.10;79.40;;;;;;4937341;29;20032;-77
2023/11/16 03:44:38;;;;;;;1.55;1.40;;;12.10;79.40;;;;;;4904684;29;20031;-76
2023/11/16 03:47:04;;;;;;;1.58;1.48;;;12.10;79.40;;;;;;4921006;29;20032;-76
2023/11/16 03:49:30;;;;;;;1.85;1.60;;;12.10;79.40;;;;;;4920300;29;20039;-76
2023/11/16 03:51:57;;;;;;;2.85;1.70;;;12.10;79.60;;;;;;4904465;29;20111;-76
2023/11/16 03:54:23;;;;;;;1.92;1.50;;;12.10;79.50;;;;;;4937503;29;20039;-76
2023/11/16 03:56:55;;;;;;;1.77;1.50;;;12.00;79.40;;;;;;4920218;29;20511;-76
2023/11/16 03:59:23;;;;;;;1.88;1.60;;;12.10;79.50;;;;;;4905360;29;20059;-76
2023/11/16 04:01:49;;;;;;;3.40;1.63;;;12.10;79.50;;;;;;4904483;29;20047;-76
2023/11/16 04:04:17;;;;;;;2.60;1.73;;;12.00;79.40;;;;;;4920021;29;20056;-76
2023/11/16 04:06:43;;;;;;;2.00;1.65;;;12.00;79.40;;;;;;4889674;29;20098;-76
2023/11/16 04:09:09;;;;;;;1.70;1.60;;;12.00;79.40;;;;;;4920034;29;20043;-76
2023/11/16 04:11:42;;;;;;;1.63;1.52;;;12.00;79.50;;;;;;4920107;29;20024;-76
2023/11/16 04:14:09;;;;;;;2.05;1.63;;;12.00;79.50;;;;;;4937009;29;20047;-77
2023/11/16 04:16:35;;;;;;;3.05;1.90;;;12.00;79.50;;;;;;4937677;29;20468;-76
2023/11/16 04:19:03;;;;;;;3.28;1.60;;;12.00;79.50;;;;;;4919123;29;20036;-76
2023/11/16 04:21:30;;;;;;;1.80;1.42;;;12.00;79.50;;;;;;4904183;29;20039;-76
2023/11/16 04:23:59;;;;;;;1.70;1.60;;;12.00;79.50;;;;;;4919791;29;20031;-76
2023/11/16 04:26:28;;;;;;;1.98;1.65;;;11.90;79.50;;;;;;4904387;29;20043;-76
2023/11/16 04:28:56;;;;;;;2.42;1.67;;;11.90;79.50;;;;;;4919459;29;20032;-76
2023/11/16 04:31:21;;;;;;;2.40;1.80;;;11.90;79.50;;;;;;4919476;29;20119;-76
2023/11/16 04:33:47;;;;;;;2.05;1.70;;;11.90;79.50;;;;;;4919467;29;20122;-76
2023/11/16 04:36:17;;;;;;;2.33;1.80;;;11.90;79.40;;;;;;4903522;29;20032;-76
2023/11/16 04:38:44;;;;;;;2.15;1.58;;;11.90;79.40;;;;;;4920468;29;20042;-77
2023/11/16 04:41:10;;;;;;;2.78;1.65;;;11.90;79.40;;;;;;4936193;29;20036;-77
2023/11/16 04:43:36;;;;;;;3.30;2.00;;;11.90;79.40;;;;;;4919936;29;20552;-76
2023/11/16 04:46:05;;;;;;;3.42;1.85;;;11.90;79.50;;;;;;4936170;29;20575;-76
2023/11/16 04:48:32;;;;;;;2.28;1.88;;;11.90;79.50;;;;;;4936659;29;20031;-76
2023/11/16 04:51:01;;;;;;;2.92;1.77;;;11.80;79.50;;;;;;4936668;29;20040;-76
2023/11/16 04:53:27;;;;;;;2.33;1.88;;;11.80;79.50;;;;;;4920260;29;20198;-76
2023/11/16 04:55:53;;;;;;;2.47;1.80;;;11.80;79.50;;;;;;4919258;29;20485;-76
2023/11/16 04:58:19;;;;;;;2.53;1.88;;;11.80;79.50;;;;;;4936131;29;20104;-76
2023/11/16 05:00:45;;;;;;;2.88;1.90;;;11.80;79.50;;;;;;4919511;29;20416;-76
2023/11/16 05:03:11;;;;;;;3.08;1.77;;;11.80;79.50;;;;;;4903709;29;20082;-76
2023/11/16 05:05:36;;;;;;;2.80;1.90;;;11.80;79.50;;;;;;4915766;29;20067;-76
2023/11/16 05:08:02;;;;;;;2.17;1.60;;;11.80;79.50;;;;;;4917650;29;20465;-76
2023/11/16 05:10:28;;;;;;;1.92;1.75;;;11.80;79.50;;;;;;4916029;29;20088;-76
2023/11/16 05:12:54;;;;;;;2.40;2.00;;;11.80;79.60;;;;;;4915853;29;20040;-77
2023/11/16 05:15:20;;;;;;;3.47;1.88;;;11.80;79.50;;;;;;4916122;29;20096;-77
2023/11/16 05:17:46;;;;;;;2.05;1.85;;;11.70;79.50;;;;;;4916453;29;20036;-76
2023/11/16 05:20:12;;;;;;;3.30;1.98;;;11.70;79.50;;;;;;4885336;29;20385;-76
2023/11/16 05:22:37;;;;;;;3.38;1.92;;;11.70;79.50;;;;;;4915757;29;20055;-76
2023/11/16 05:25:07;;;;;;;3.70;2.15;;;11.70;79.50;;;;;;4916065;29;20425;-78
2023/11/16 05:27:33;;;;;;;2.63;2.03;;;11.70;79.50;;;;;;4916518;29;20115;-76
2023/11/16 05:29:59;;;;;;;2.70;1.90;;;11.70;79.50;;;;;;4918021;29;20036;-77
2023/11/16 05:32:25;;;;;;;2.65;2.00;;;11.70;80.20;;;;;;4905177;29;20091;-76
2023/11/16 05:34:51;;;;;;;2.25;1.80;;;11.70;79.60;;;;;;4923164;29;20036;-77
2023/11/16 05:37:18;;;;;;;2.80;1.83;;;11.70;79.60;;;;;;4908743;29;20598;-77
2023/11/16 05:39:44;;;;;;;3.28;1.80;;;11.70;79.60;;;;;;4927452;29;20036;-77
2023/11/16 05:42:10;;;;;;;2.15;1.90;;;11.60;79.50;;;;;;4929404;29;20036;-77
2023/11/16 05:44:36;;;;;;;2.53;1.80;;;11.60;79.50;;;;;;4929015;29;20047;-77
2023/11/16 05:47:03;;;;;;;2.95;1.80;;;11.60;79.50;;;;;;4924119;29;20032;-77
2023/11/16 05:49:28;;;;;;;3.17;1.70;;;11.60;79.50;;;;;;4921043;29;20096;-76
2023/11/16 05:51:55;;;;;;;2.53;1.92;;;11.60;79.50;;;;;;4919806;29;20024;-76
2023/11/16 05:54:21;;;;;;;2.55;2.00;;;11.60;79.60;;;;;;4903960;29;20032;-76
2023/11/16 05:56:48;;;;;;;3.72;2.05;;;11.60;79.60;;;;;;4919224;29;20107;-76
2023/11/16 05:59:15;;;;;;;2.75;2.08;;;11.60;79.60;;;;;;4919178;29;20145;-76
2023/11/16 06:01:45;;;;;;;2.47;1.85;;;11.60;79.50;;;;;;4904313;29;20141;-76
2023/11/16 06:04:11;;;;;;;2.55;1.85;;;11.60;79.60;;;;;;4922142;29;20032;-76
2023/11/16 06:06:37;;;;;;;2.70;2.03;;;11.50;79.60;;;;;;4919240;29;20579;-76
2023/11/16 06:09:03;;;;;;;2.88;2.15;;;11.50;79.60;;;;;;4918862;29;20130;-75
2023/11/16 06:11:30;;;;;;;2.30;1.80;;;11.50;79.60;;;;;;4919733;29;20028;-78
2023/11/16 06:13:56;;;;;;;3.05;2.10;;;11.50;79.60;;;;;;4918714;29;20039;-77
2023/11/16 06:16:24;;;;;;;2.50;1.90;;;11.50;79.60;;;;;;4903303;29;20043;-77
2023/11/16 06:18:50;;;;;;;2.35;2.08;;;11.50;79.60;;;;;;4919355;29;20036;-77
2023/11/16 06:21:16;;;;;;;2.22;1.80;;;11.50;79.60;;;;;;4918710;29;20545;-78
2023/11/16 06:23:43;;;;;;;2.13;1.90;;;11.50;79.60;;;;;;4918813;29;20149;-77
2023/11/16 06:26:09;;;;;;;2.85;1.88;;;11.40;79.60;;;;;;4918562;29;20474;-76
2023/11/16 06:28:37;;;;;;;2.47;2.00;;;11.40;79.60;;;;;;4902669;29;20028;-76
2023/11/16 06:31:04;;;;;;;2.90;1.83;;;11.40;79.60;;;;;;4918957;29;20044;-76
2023/11/16 06:33:31;;;;;;;2.60;2.00;;;11.40;79.60;;;;;;4918467;29;20059;-77
2023/11/16 06:35:56;;;;;;;3.35;2.00;;;11.40;79.60;;;;;;4903151;29;20131;-75
2023/11/16 06:38:22;;;;;;;2.88;1.98;;;11.40;79.60;;;;;;4919059;29;20497;-76
2023/11/16 06:40:48;;;;;;;2.95;2.10;;;11.40;79.60;;;;;;4917867;29;20469;-78
2023/11/16 06:43:15;;;;;;;1.92;1.70;;;11.40;79.50;;;;;;4871786;29;20043;-80
2023/11/16 06:45:44;;;;;;;3.33;2.10;;;11.30;79.50;;;;;;4902820;29;20044;-77
2023/11/16 06:48:10;;;;;;;3.10;2.25;;;11.30;79.50;;;;;;4902847;29;20032;-77
2023/11/16 06:50:38;;;;;;;2.40;2.05;;;11.30;79.50;;;;;;4918276;29;20462;-77
2023/11/16 06:53:06;;;;;;;2.58;2.20;;;11.30;79.50;;;;;;4887661;29;20059;-77
2023/11/16 06:55:43;;;;;;;3.60;1.95;;;11.30;79.60;;;;;;4902934;29;20036;-82
2023/11/16 06:58:09;;;;;;;2.88;2.05;;;11.30;79.60;;;;;;4919274;29;20056;-76
2023/11/16 07:00:37;;;;;;;3.00;2.20;;;11.20;79.50;;;;;;4918107;29;20039;-76
2023/11/16 07:03:07;;;;;;;3.03;1.98;;;11.20;79.50;;;;;;4919241;29;20496;-81
2023/11/16 07:05:33;;;;;;;2.08;1.88;;;11.20;79.60;;;;;;4902961;29;20063;-76
2023/11/16 07:07:59;;;;;;;3.05;2.08;;;11.20;79.60;;;;;;4919041;29;20032;-76
2023/11/16 07:10:25;;;;;;;2.28;1.92;;;11.20;79.60;;;;;;4902473;29;20358;-76
2023/11/16 07:12:51;;;;;;;2.60;2.10;;;11.20;79.60;;;;;;4918289;29;20036;-76
2023/11/16 07:15:18;;;;;;;3.55;2.28;;;11.10;79.50;;;;;;4886441;29;20118;-77
2023/11/16 07:17:44;;;;;;;2.80;2.13;;;11.10;79.50;;;;;;4917883;29;20389;-76
2023/11/16 07:20:13;;;;;;;3.42;2.25;;;11.10;79.60;;;;;;4919202;29;20028;-76
2023/11/16 07:22:40;;;;;;;3.35;2.22;;;11.10;79.50;;;;;;4902315;29;20129;-78
2023/11/16 07:25:07;;;;;;;2.78;2.15;;;11.10;79.50;;;;;;4917185;29;20051;-76
2023/11/16 07:27:39;;;;;;;3.42;2.35;;;11.00;79.50;;;;;;4917390;29;20393;-77
2023/11/16 07:30:06;;;;;;;2.92;2.30;;;11.00;79.50;;;;;;4917409;29;20024;-76
2023/11/16 07:32:32;;;;;;;2.95;2.10;;;11.00;79.50;;;;;;4917327;29;20032;-76
2023/11/16 07:34:58;;;;;;;2.85;1.95;;;11.00;79.50;;;;;;4901845;29;20048;-78
2023/11/16 07:37:24;;;;;;;3.47;2.30;;;11.00;79.50;;;;;;4917506;29;20032;-77
2023/11/16 07:39:50;;;;;;;2.92;2.30;;;11.00;79.60;;;;;;4917527;29;20024;-79
2023/11/16 07:42:16;;;;;;;3.05;2.47;;;10.90;79.50;;;;;;4917306;29;20040;-78
2023/11/16 07:44:44;;;;;;;3.58;2.38;;;10.90;79.50;;;;;;4917576;29;20032;-77
2023/11/16 07:47:11;;;;;;;3.47;2.67;;;10.90;79.50;;;;;;4902002;29;20040;-79
2023/11/16 07:49:38;;;;;;;3.63;2.47;;;10.90;79.50;;;;;;4901489;29;20043;-77
2023/11/16 07:52:04;;;;;;;3.25;2.40;;;10.90;79.50;;;;;;4918256;29;20083;-77
2023/11/16 07:54:31;;;;;;;3.15;2.33;;;10.90;79.50;;;;;;4902619;29;20028;-77
2023/11/16 07:57:02;;;;;;;3.45;2.20;;;10.90;79.50;;;;;;4886140;29;20082;-77
2023/11/16 07:59:32;;;;;;;2.95;2.38;;;10.80;79.50;;;;;;4872127;29;20354;-77
2023/11/16 08:02:00;;;;;;;3.53;2.58;;;10.80;79.50;;;;;;4917583;29;20058;-79
2023/11/16 08:04:27;;;;;;;2.97;2.35;;;10.80;79.50;;;;;;4901391;29;20389;-78
2023/11/16 08:06:59;;;;;;;4.45;3.05;;;10.80;79.50;;;;;;4885767;29;20052;-78
2023/11/16 08:09:29;;;;;;;2.80;2.25;;;10.80;79.60;;;;;;4902050;29;20374;-77
2023/11/16 08:11:56;;;;;;;2.72;2.20;;;10.70;79.50;;;;;;4917246;29;20480;-77
2023/11/16 08:14:25;;;;;;;3.25;2.33;;;10.70;79.50;;;;;;4916592;29;20159;-79
2023/11/16 08:16:56;;;;;;;2.60;2.30;;;10.70;79.50;;;;;;4917021;29;20039;-79
2023/11/16 08:19:25;;;;;;;3.53;2.50;;;10.70;79.50;;;;;;4918217;29;20032;-78
2023/11/16 08:21:55;;;;;;;2.80;2.22;;;10.70;79.50;;;;;;4901563;29;20120;-78
2023/11/16 08:24:22;;;;;;;2.80;2.22;;;10.70;79.60;;;;;;4917598;29;20032;-78
2023/11/16 08:26:48;;;;;;;3.58;2.53;;;10.70;79.50;;;;;;4916296;29;20036;-76
2023/11/16 08:29:14;;;;;;;3.30;2.42;;;10.70;79.60;;;;;;4869895;29;20091;-76
2023/11/16 08:31:40;;;;;;;4.00;2.60;;;10.70;79.60;;;;;;4901620;29;20032;-75
2023/11/16 08:34:08;;;;;;;3.78;2.53;;;10.70;79.50;;;;;;4917334;29;20038;-78
2023/11/16 08:36:36;;;;;;;3.83;2.60;;;10.60;79.50;;;;;;4901174;29;20104;-78
2023/11/16 08:39:07;;;;;;;3.40;2.58;;;10.60;79.50;;;;;;4916638;29;20043;-78
2023/11/16 08:41:33;;;;;;;3.85;2.58;;;10.60;79.50;;;;;;4885888;29;20466;-78
2023/11/16 08:44:01;;;;;;;4.43;2.88;;;10.60;79.50;;;;;;4916683;29;20040;-78
2023/11/16 08:46:32;;;;;;;3.83;2.75;;;10.60;79.60;;;;;;4916258;29;20143;-79
2023/11/16 08:48:59;;;;;;;3.95;3.10;;;10.60;79.60;;;;;;4917001;29;20044;-78
2023/11/16 08:51:25;;;;;;;4.95;3.03;;;10.60;79.60;;;;;;4917520;29;20115;-79
2023/11/16 08:53:55;;;;;;;4.20;2.83;;;10.60;79.60;;;;;;4916507;29;20021;-76
2023/11/16 08:56:26;;;;;;;3.45;2.58;;;10.60;79.60;;;;;;4916592;29;20039;-78
2023/11/16 08:58:53;;;;;;;3.22;2.47;;;10.60;79.60;;;;;;4901257;29;20140;-79
2023/11/16 09:01:19;;;;;;;4.20;2.55;;;10.60;79.60;;;;;;4916589;29;20032;-76
2023/11/16 09:03:49;;;;;;;4.72;3.10;;;10.60;79.60;;;;;;4899709;29;20036;-79
2023/11/16 09:06:16;;;;;;;4.00;2.83;;;10.60;79.60;;;;;;4899896;29;20056;-79
2023/11/16 09:08:42;;;;;;;4.13;2.72;;;10.60;79.60;;;;;;4916153;29;20123;-78
2023/11/16 09:11:08;;;;;;;4.53;3.00;;;10.60;79.60;;;;;;4900210;29;20032;-78
2023/11/16 09:13:34;;;;;;;4.03;2.88;;;10.60;79.60;;;;;;4915965;29;20045;-79
2023/11/16 09:16:01;;;;;;;4.55;2.70;;;10.60;79.60;;;;;;4915850;29;20120;-78
2023/11/16 09:18:27;;;;;;;4.18;2.65;;;10.70;79.70;;;;;;4901120;29;20068;-76
2023/11/16 09:20:56;;;;;;;4.22;3.10;;;10.60;79.60;;;;;;4917727;29;20462;-76
2023/11/16 09:23:23;;;;;;;3.85;2.97;;;10.60;79.60;;;;;;4900448;29;20482;-76
2023/11/16 09:25:49;;;;;;;3.75;3.05;;;10.60;79.70;;;;;;4917190;29;20091;-77
2023/11/16 09:28:15;;;;;;;4.00;3.00;;;10.60;79.70;;;;;;4900632;29;20037;-76
2023/11/16 09:30:43;;;;;;;3.83;2.88;;;10.70;79.70;;;;;;4884738;29;20036;-76
2023/11/16 09:33:09;;;;;;;3.97;2.85;;;10.70;79.70;;;;;;4884890;29;20038;-76
2023/11/16 09:35:42;;;;;;;4.15;3.05;;;10.70;79.80;;;;;;4915918;29;20028;-76
2023/11/16 09:38:10;;;;;;;4.55;3.38;;;10.70;79.70;;;;;;4916607;29;20028;-78
2023/11/16 09:40:37;;;;;;;4.35;3.22;;;10.70;79.70;;;;;;4885329;29;20489;-78
2023/11/16 09:43:21;;;;;;;4.05;2.75;;;10.70;79.70;;;;;;4916086;29;20107;-78
2023/11/16 09:45:48;;;;;;;4.28;3.15;;;10.70;79.70;;;;;;4915757;29;20036;-78
2023/11/16 09:48:22;;;;;;;3.70;2.85;;;10.70;79.70;;;;;;4900468;29;20051;-78
2023/11/16 09:50:49;;;;;;;4.72;3.35;;;10.80;79.70;;;;;;4900847;29;20074;-74
2023/11/16 09:53:17;;;;;;;5.28;3.30;;;10.80;79.70;;;;;;4915733;29;20059;-78
2023/11/16 09:56:04;;;;;;;4.35;3.47;;;10.80;79.80;;;;;;4899980;29;20512;-79
2023/11/16 09:58:36;;;;;;;4.65;3.45;;;10.80;79.80;;;;;;4915978;29;20036;-81
2023/11/16 10:01:05;;;;;;;4.30;3.25;;;10.80;79.70;;;;;;4916947;29;20079;-78
2023/11/16 10:03:36;;;;;;;4.18;3.08;;;10.80;79.70;;;;;;4916584;29;20035;-76
2023/11/16 10:06:07;;;;;;;5.50;3.63;;;10.80;79.70;;;;;;4915665;29;20417;-76
2023/11/16 10:08:33;;;;;;;4.55;3.42;;;10.80;79.70;;;;;;4885755;29;20040;-79
2023/11/16 10:11:06;;;;;;;4.85;3.17;;;10.80;79.70;;;;;;4915788;29;20544;-79
2023/11/16 10:13:33;;;;;;;4.07;3.30;;;10.90;79.80;;;;;;4916718;29;20040;-76
2023/11/16 10:16:04;;;;;;;4.60;3.30;;;10.90;79.80;;;;;;4915761;29;20036;-76
2023/11/16 10:18:30;;;;;;;4.97;3.50;;;10.90;79.80;;;;;;4904633;29;20377;-79
2023/11/16 10:20:57;;;;;;;5.95;3.70;;;10.90;79.80;;;;;;4903414;29;20040;-77
2023/11/16 10:23:24;;;;;;;5.72;3.78;;;10.90;79.80;;;;;;4903558;29;20504;-76
2023/11/16 10:25:50;;;;;;;4.85;3.67;;;10.90;79.80;;;;;;4902913;29;20043;-76
2023/11/16 10:28:18;;;;;;;5.78;4.13;;;11.00;79.80;;;;;;4919101;29;20035;-77
2023/11/16 10:30:50;;;;;;;6.20;4.10;;;11.00;79.80;;;;;;4934511;29;20043;-76
2023/11/16 10:33:17;;;;;;;5.03;3.80;;;11.00;79.80;;;;;;4903254;29;20488;-79
2023/11/16 10:35:48;;;;;;;5.10;3.92;;;11.00;79.80;;;;;;4903122;29;20040;-78
2023/11/16 10:38:23;;;;;;;5.50;4.15;;;11.00;79.90;;;;;;4919510;29;20068;-76
2023/11/16 10:40:51;;;;;;;;;;;11.00;79.90;;;;;;4918964;29;20064;-76
2023/11/16 10:43:19;;;;;;;4.65;3.38;;;11.00;79.60;;;;;;4918441;29;20261;-77
2023/11/16 10:45:46;;;;;;;5.43;3.95;;;11.00;79.60;;;;;;4903109;29;20090;-76
2023/11/16 10:48:17;;;;;;;5.60;4.10;;;11.00;79.70;;;;;;4919622;29;20048;-77
2023/11/16 10:50:43;;;;;;;6.45;4.05;;;11.00;79.70;;;;;;4918693;29;20035;-76
2023/11/16 10:53:17;;;;;;;5.82;4.38;;;11.10;79.80;;;;;;4902471;29;20032;-77
2023/11/16 10:55:47;;;;;;;5.80;4.40;;;11.10;79.90;;;;;;4886864;29;20095;-79
2023/11/16 10:58:13;;;;;;;5.75;4.68;;;11.10;79.90;;;;;;4902733;29;20036;-78
2023/11/16 11:00:41;;;;;;;6.25;4.57;;;11.10;79.90;;;;;;4918470;29;20108;-78
2023/11/16 11:03:08;;;;;;;6.22;4.65;;;11.10;79.90;;;;;;4902439;29;20040;-77
2023/11/16 11:05:37;;;;;;;6.07;4.30;;;11.10;79.90;;;;;;4901865;29;20097;-76
2023/11/16 11:08:10;;;;;;;6.05;4.57;;;11.10;79.90;;;;;;4918348;29;20028;-77
2023/11/16 11:10:41;;;;;;;5.47;4.53;;;11.10;79.90;;;;;;4918537;29;20355;-76
2023/11/16 11:13:07;;;;;;;6.10;4.75;;;11.10;79.90;;;;;;4887458;29;20147;-79
2023/11/16 11:15:36;;;;;;;6.45;5.10;;;11.20;79.90;;;;;;4919158;29;20067;-79
2023/11/16 11:18:04;;;;;;;7.50;5.50;;;11.20;80.00;;;;;;4902422;29;20040;-80
2023/11/16 11:20:40;;;;;;;6.30;4.95;;;11.20;79.90;;;;;;4917972;29;20029;-79
2023/11/16 11:23:19;;;;;;;6.55;4.68;;;11.20;80.00;;;;;;4919042;29;20087;-79
2023/11/16 11:25:46;;;;;;;7.03;5.25;;;11.20;80.00;;;;;;4887546;29;20032;-79
2023/11/16 11:28:14;;;;;;;5.90;4.70;;;11.20;79.90;;;;;;4917352;29;20032;-79
2023/11/16 11:30:59;;;;;;;6.82;5.18;;;11.20;79.90;;;;;;4917502;29;20540;-79
2023/11/16 11:33:46;;;;;;;6.78;5.18;;;11.30;80.10;;;;;;4917769;29;20051;-78
2023/11/16 11:36:17;;;;;;;6.20;4.72;;;11.30;80.00;;;;;;4919020;29;20415;-78
2023/11/16 11:38:52;;;;;;;7.22;5.03;;;11.30;80.00;;;;;;4917434;29;20063;-79
2023/11/16 11:41:18;;;;;;;7.97;4.93;;;11.30;80.00;;;;;;4918483;29;20062;-78
2023/11/16 11:43:45;;;;;;;6.10;4.90;;;11.30;79.90;;;;;;4917303;29;20035;-79
2023/11/16 11:46:16;;;;;;;7.00;5.53;;;11.30;79.90;;;;;;4917225;29;20035;-78
2023/11/16 11:48:42;;;;;;;7.40;4.80;;;11.30;79.90;;;;;;4933435;29;20463;-80
2023/11/16 11:51:10;;;;;;;7.07;4.72;;;11.30;79.90;;;;;;4918463;29;20109;-81
2023/11/16 11:53:37;;;;;;;5.95;4.63;;;11.30;79.90;;;;;;4902581;29;20032;-80
2023/11/16 11:56:08;;;;;;;7.03;4.75;;;11.30;79.90;;;;;;4901604;29;20036;-78
2023/11/16 11:58:39;;;;;;;6.15;4.38;;;11.30;79.90;;;;;;4902697;29;20043;-79
2023/11/16 12:01:08;;;;;;;6.88;5.03;;;11.30;79.90;;;;;;4917376;29;20470;-79
2023/11/16 12:03:34;;;;;;;5.93;4.47;;;11.40;79.90;;;;;;4902404;29;20029;-78
2023/11/16 12:06:08;;;;;;;7.22;5.07;;;11.40;80.00;;;;;;4885504;29;20056;-79
2023/11/16 12:08:39;;;;;;;6.60;4.82;;;11.40;80.00;;;;;;4918178;29;20024;-77
2023/11/16 12:11:06;;;;;;;6.07;4.75;;;11.40;80.00;;;;;;4901122;29;20052;-83
2023/11/16 12:13:36;;;;;;;7.30;5.07;;;11.40;80.00;;;;;;4916711;29;20508;-77
2023/11/16 12:16:06;;;;;;;6.60;4.82;;;11.40;80.00;;;;;;4916638;29;20039;-76
2023/11/16 12:18:35;;;;;;;6.30;4.70;;;11.40;79.90;;;;;;4886196;29;20462;-76
2023/11/16 12:21:05;;;;;;;5.65;4.25;;;11.40;79.90;;;;;;4916846;29;20460;-79
2023/11/16 12:23:30;;;;;;;5.30;4.18;;;11.40;79.90;;;;;;4918122;29;20100;-77
2023/11/16 12:26:02;;;;;;;6.13;4.68;;;11.40;79.90;;;;;;4885294;29;20465;-77
2023/11/16 12:28:28;;;;;;;6.30;4.38;;;11.50;80.00;;;;;;4901002;29;20036;-77
2023/11/16 12:30:58;;;;;;;6.68;4.63;;;11.40;80.50;;;;;;4917556;29;20032;-79
2023/11/16 12:33:24;;;;;;;6.18;4.63;;;11.50;80.00;;;;;;4917509;29;20445;-76
2023/11/16 12:35:50;;;;;;;6.47;4.47;;;11.50;80.00;;;;;;4900608;29;20036;-77
2023/11/16 12:38:19;;;;;;;7.07;4.20;;;11.50;80.00;;;;;;4917303;29;20032;-76
2023/11/16 12:40:45;;;;;;;6.75;5.00;;;11.50;80.00;;;;;;4915809;29;20079;-76
2023/11/16 12:43:11;;;;;;;6.22;4.57;;;11.50;80.00;;;;;;4916622;29;20041;-78
2023/11/16 12:45:37;;;;;;;7.32;4.93;;;11.50;79.90;;;;;;4900854;29;20119;-76
2023/11/16 12:48:06;;;;;;;7.22;5.13;;;11.50;79.90;;;;;;4916242;29;20036;-76
2023/11/16 12:50:32;;;;;;;6.78;4.80;;;11.50;79.90;;;;;;4915961;29;20043;-77